createdAt,value
2023-10-23T00:01:23.001Z,27.60
2023-10-23T00:03:49.982Z,29.95
2023-10-23T00:06:16.607Z,30.90
2023-10-23T00:08:43.025Z,29.83
2023-10-23T00:11:09.413Z,30.95
2023-10-23T00:13:35.849Z,30.90
2023-10-23T00:16:02.281Z,31.45
2023-10-23T00:18:28.723Z,33.63
2023-10-23T00:20:55.158Z,30.73
2023-10-23T00:23:21.566Z,31.15
2023-10-23T00:25:47.953Z,29.20
2023-10-23T00:28:14.322Z,32.70
2023-10-23T00:30:40.789Z,33.13
2023-10-23T00:33:07.291Z,34.60
2023-10-23T00:35:33.722Z,37.22
2023-10-23T00:38:00.315Z,36.67
2023-10-23T00:40:26.683Z,36.25
2023-10-23T00:42:53.233Z,36.17
2023-10-23T00:45:20.445Z,36.83
2023-10-23T00:47:47.454Z,36.42
2023-10-23T00:50:14.228Z,32.10
2023-10-23T00:52:40.752Z,37.00
2023-10-23T00:55:07.494Z,39.35
2023-10-23T00:57:34.077Z,39.97
2023-10-23T01:00:00.748Z,42.63
2023-10-23T01:02:27.216Z,37.17
2023-10-23T01:04:53.790Z,35.80
2023-10-23T01:07:20.241Z,37.95
2023-10-23T01:09:46.704Z,38.70
2023-10-23T01:12:13.112Z,36.53
2023-10-23T01:14:39.643Z,39.08
2023-10-23T01:17:06.311Z,37.15
2023-10-23T01:19:32.668Z,35.75
2023-10-23T01:21:59.041Z,37.47
2023-10-23T01:24:27.049Z,33.83
2023-10-23T01:26:53.432Z,32.47
2023-10-23T01:29:19.806Z,39.30
2023-10-23T01:31:46.234Z,35.47
2023-10-23T01:34:12.612Z,35.30
2023-10-23T01:36:39.101Z,34.90
2023-10-23T01:39:05.645Z,34.13
2023-10-23T01:41:31.991Z,34.75
2023-10-23T01:43:58.418Z,34.42
2023-10-23T01:46:24.864Z,36.00
2023-10-23T01:48:51.274Z,35.40
2023-10-23T01:51:17.945Z,34.05
2023-10-23T01:53:44.336Z,33.13
2023-10-23T01:56:10.707Z,34.08
2023-10-23T01:58:37.133Z,33.42
2023-10-23T02:01:03.661Z,33.90
2023-10-23T02:03:32.867Z,37.35
2023-10-23T02:05:59.585Z,35.90
2023-10-23T02:08:26.064Z,39.08
2023-10-23T02:10:52.566Z,36.75
2023-10-23T02:13:20.030Z,37.15
2023-10-23T02:15:46.431Z,36.17
2023-10-23T02:18:13.130Z,36.30
2023-10-23T02:20:39.530Z,33.10
2023-10-23T02:23:05.964Z,37.97
2023-10-23T02:25:32.338Z,34.90
2023-10-23T02:27:58.807Z,32.20
2023-10-23T02:30:25.313Z,31.65
2023-10-23T02:32:51.778Z,29.10
2023-10-23T02:35:18.242Z,29.33
2023-10-23T02:37:44.611Z,31.30
2023-10-23T02:40:12.790Z,29.23
2023-10-23T02:42:39.349Z,31.67
2023-10-23T02:45:06.560Z,32.45
2023-10-23T02:47:32.956Z,32.50
2023-10-23T02:49:59.366Z,30.80
2023-10-23T02:52:26.871Z,31.08
2023-10-23T02:54:53.366Z,32.20
2023-10-23T02:57:19.983Z,33.42
2023-10-23T02:59:48.155Z,31.55
2023-10-23T03:02:15.872Z,30.02
2023-10-23T03:04:42.413Z,27.85
2023-10-23T03:07:09.503Z,27.30
2023-10-23T03:09:36.335Z,30.25
2023-10-23T03:12:03.035Z,30.25
2023-10-23T03:14:29.382Z,31.00
2023-10-23T03:16:55.983Z,28.67
2023-10-23T03:19:25.467Z,29.75
2023-10-23T03:21:53.036Z,27.95
2023-10-23T03:24:19.779Z,30.20
2023-10-23T03:26:46.295Z,29.27
2023-10-23T03:29:12.658Z,28.58
2023-10-23T03:31:39.262Z,31.08
2023-10-23T03:34:05.811Z,30.73
2023-10-23T03:36:32.365Z,30.40
2023-10-23T03:38:58.806Z,30.45
2023-10-23T03:41:26.866Z,30.60
2023-10-23T03:43:53.364Z,30.80
2023-10-23T03:46:19.766Z,29.27
2023-10-23T03:48:46.267Z,27.88
2023-10-23T03:51:12.738Z,30.05
2023-10-23T03:53:39.168Z,31.25
2023-10-23T03:56:07.171Z,29.67
2023-10-23T03:58:33.711Z,30.35
2023-10-23T04:01:00.267Z,33.50
2023-10-23T04:03:26.790Z,30.40
2023-10-23T04:05:53.737Z,34.65
2023-10-23T04:08:20.233Z,34.88
2023-10-23T04:10:50.011Z,31.20
2023-10-23T04:13:17.156Z,33.60
2023-10-23T04:15:58.168Z,34.33
2023-10-23T04:18:26.656Z,31.13
2023-10-23T04:21:08.060Z,31.67
2023-10-23T04:23:35.846Z,34.03
2023-10-23T04:26:03.002Z,33.80
2023-10-23T04:28:29.797Z,32.30
2023-10-23T04:30:59.091Z,33.25
2023-10-23T04:33:26.178Z,34.08
2023-10-23T04:35:58.284Z,33.40
2023-10-23T04:38:25.658Z,36.45
2023-10-23T04:40:54.197Z,32.88
2023-10-23T04:43:21.574Z,33.60
2023-10-23T04:45:49.665Z,34.72
2023-10-23T04:48:16.465Z,34.45
2023-10-23T04:50:43.231Z,34.97
2023-10-23T04:53:09.673Z,32.33
2023-10-23T04:55:39.708Z,32.33
2023-10-23T04:58:07.051Z,31.15
2023-10-23T05:00:38.849Z,30.00
2023-10-23T05:03:05.976Z,31.13
2023-10-23T05:05:33.211Z,30.65
2023-10-23T05:08:00.121Z,33.03
2023-10-23T05:10:26.618Z,30.38
2023-10-23T05:12:54.544Z,31.05
2023-10-23T05:15:21.106Z,33.05
2023-10-23T05:17:47.512Z,30.50
2023-10-23T05:20:14.013Z,33.25
2023-10-23T05:22:40.493Z,32.38
2023-10-23T05:25:07.390Z,34.30
2023-10-23T05:27:34.006Z,33.67
2023-10-23T05:30:00.458Z,32.05
2023-10-23T05:32:26.862Z,33.58
2023-10-23T05:34:53.314Z,34.83
2023-10-23T05:37:20.818Z,32.15
2023-10-23T05:39:47.250Z,33.40
2023-10-23T05:42:14.469Z,28.58
2023-10-23T05:44:40.815Z,31.52
2023-10-23T05:47:08.041Z,32.17
2023-10-23T05:49:35.483Z,31.80
2023-10-23T05:52:02.062Z,33.50
2023-10-23T05:54:28.480Z,33.42
2023-10-23T05:56:54.918Z,33.10
2023-10-23T05:59:21.273Z,31.67
2023-10-23T06:01:47.715Z,32.53
2023-10-23T06:04:14.137Z,30.45
2023-10-23T06:06:40.663Z,30.85
2023-10-23T06:09:07.365Z,32.80
2023-10-23T06:11:33.819Z,34.97
2023-10-23T06:14:00.173Z,33.83
2023-10-23T06:16:26.663Z,31.60
2023-10-23T06:18:53.267Z,34.78
2023-10-23T06:21:19.684Z,33.53
2023-10-23T06:23:46.081Z,31.92
2023-10-23T06:26:12.544Z,33.78
2023-10-23T06:28:39.131Z,32.50
2023-10-23T06:31:11.986Z,34.05
2023-10-23T06:33:45.658Z,33.50
2023-10-23T06:36:12.201Z,34.67
2023-10-23T06:38:39.008Z,35.15
2023-10-23T06:41:09.633Z,33.85
2023-10-23T06:43:38.215Z,32.60
2023-10-23T06:46:05.005Z,34.63
2023-10-23T06:48:32.114Z,33.97
2023-10-23T06:50:58.886Z,37.05
2023-10-23T06:53:25.337Z,35.45
2023-10-23T06:55:53.535Z,37.17
2023-10-23T06:58:20.925Z,39.25
2023-10-23T07:00:48.378Z,43.10
2023-10-23T07:03:15.325Z,45.38
2023-10-23T07:05:42.535Z,43.00
2023-10-23T07:08:09.517Z,44.47
2023-10-23T07:10:36.768Z,47.50
2023-10-23T07:13:07.933Z,55.88
2023-10-23T07:15:41.884Z,67.93
2023-10-23T07:18:11.231Z,71.03
2023-10-23T07:20:37.859Z,83.25
2023-10-23T07:23:04.273Z,86.95
2023-10-23T07:25:30.648Z,82.22
2023-10-23T07:27:57.026Z,90.07
2023-10-23T07:30:25.458Z,95.40
2023-10-23T07:32:52.098Z,86.28
2023-10-23T07:35:18.586Z,88.35
2023-10-23T07:37:45.092Z,86.30
2023-10-23T07:40:12.159Z,81.75
2023-10-23T07:42:39.016Z,70.75
2023-10-23T07:45:06.077Z,74.70
2023-10-23T07:47:32.502Z,79.07
2023-10-23T07:49:58.929Z,70.85
2023-10-23T07:52:25.321Z,58.78
2023-10-23T07:54:51.702Z,48.22
2023-10-23T07:57:18.098Z,42.72
2023-10-23T07:59:44.816Z,38.20
2023-10-23T08:02:11.331Z,36.65
2023-10-23T08:04:38.011Z,38.05
2023-10-23T08:07:04.781Z,41.50
2023-10-23T08:09:31.262Z,41.17
2023-10-23T08:11:57.674Z,40.20
2023-10-23T08:14:24.153Z,39.75
2023-10-23T08:16:54.403Z,43.15
2023-10-23T08:19:21.568Z,43.42
2023-10-23T08:21:49.164Z,41.63
2023-10-23T08:24:16.358Z,42.20
2023-10-23T08:26:42.733Z,42.53
2023-10-23T08:29:09.261Z,42.20
2023-10-23T08:31:40.046Z,37.85
2023-10-23T08:34:08.648Z,36.05
2023-10-23T08:36:35.847Z,37.17
2023-10-23T08:39:02.849Z,38.50
2023-10-23T08:41:29.726Z,38.97
2023-10-23T08:43:57.352Z,41.58
2023-10-23T08:46:28.453Z,43.75
2023-10-23T08:48:55.117Z,41.70
2023-10-23T08:51:22.207Z,39.03
2023-10-23T08:56:27.001Z,33.92
2023-10-23T08:58:59.545Z,36.22
2023-10-23T09:01:26.969Z,35.95
2023-10-23T09:04:03.750Z,41.95
2023-10-23T09:06:32.064Z,46.92
2023-10-23T09:08:58.918Z,48.28
2023-10-23T09:11:45.769Z,43.13
2023-10-23T09:14:24.527Z,37.15
2023-10-23T09:16:52.516Z,34.78
2023-10-23T09:19:26.803Z,37.45
2023-10-23T09:21:57.863Z,34.38
2023-10-23T09:24:24.843Z,38.15
2023-10-23T09:26:51.930Z,33.88
2023-10-23T09:29:25.608Z,32.85
2023-10-23T09:31:54.042Z,32.92
2023-10-23T09:34:22.267Z,39.70
2023-10-23T09:36:53.154Z,33.40
2023-10-23T09:39:22.537Z,33.75
2023-10-23T09:41:49.832Z,39.25
2023-10-23T09:44:16.855Z,34.83
2023-10-23T09:46:46.497Z,35.53
2023-10-23T09:49:13.252Z,39.00
2023-10-23T09:51:41.301Z,40.40
2023-10-23T09:54:21.679Z,35.40
2023-10-23T09:56:54.874Z,38.05
2023-10-23T09:59:35.920Z,40.40
2023-10-23T10:02:06.772Z,38.10
2023-10-23T10:05:09.772Z,40.47
2023-10-23T10:07:59.745Z,37.47
2023-10-23T10:10:27.719Z,38.70
2023-10-23T10:12:56.432Z,42.28
2023-10-23T10:15:24.708Z,42.28
2023-10-23T10:17:51.790Z,43.15
2023-10-23T10:20:22.904Z,43.33
2023-10-23T10:23:09.555Z,44.05
2023-10-23T10:25:37.147Z,42.17
2023-10-23T10:28:05.491Z,44.60
2023-10-23T10:30:42.162Z,49.40
2023-10-23T10:34:25.000Z,44.03
2023-10-23T10:36:08.383Z,42.97
2023-10-23T10:38:36.054Z,38.50
2023-10-23T10:41:04.010Z,42.75
2023-10-23T10:43:38.727Z,40.95
2023-10-23T10:46:25.928Z,41.63
2023-10-23T10:48:55.164Z,41.65
2023-10-23T10:51:22.868Z,37.63
2023-10-23T10:53:56.347Z,39.97
2023-10-23T10:56:22.755Z,44.22
2023-10-23T10:58:49.629Z,45.42
2023-10-23T11:01:16.250Z,43.90
2023-10-23T11:03:43.398Z,53.30
2023-10-23T11:06:10.251Z,55.80
2023-10-23T11:08:39.400Z,58.08
2023-10-23T11:11:07.281Z,56.13
2023-10-23T11:13:34.266Z,57.45
2023-10-23T11:16:01.192Z,50.70
2023-10-23T11:18:31.128Z,43.70
2023-10-23T11:21:01.396Z,43.00
2023-10-23T11:23:31.741Z,43.35
2023-10-23T11:25:58.968Z,44.92
2023-10-23T11:28:29.522Z,48.90
2023-10-23T11:30:59.339Z,45.45
2023-10-23T11:33:25.829Z,45.75
2023-10-23T11:35:55.610Z,45.28
2023-10-23T11:38:25.018Z,48.55
2023-10-23T11:40:52.236Z,51.90
2023-10-23T11:43:18.942Z,50.03
2023-10-23T11:45:46.967Z,48.22
2023-10-23T11:48:13.823Z,52.70
2023-10-23T11:50:41.569Z,56.05
2023-10-23T11:53:08.516Z,51.90
2023-10-23T11:55:38.026Z,53.00
2023-10-23T11:58:04.964Z,45.88
2023-10-23T12:00:35.358Z,48.83
2023-10-23T12:03:02.114Z,44.17
2023-10-23T12:05:28.623Z,45.53
2023-10-23T12:07:55.892Z,48.78
2023-10-23T12:10:25.613Z,47.20
2023-10-23T12:12:53.805Z,42.28
2023-10-23T12:15:21.572Z,42.72
2023-10-23T12:17:48.210Z,47.00
2023-10-23T12:20:15.807Z,44.63
2023-10-23T12:22:44.089Z,43.58
2023-10-23T12:25:11.953Z,42.42
2023-10-23T12:27:39.564Z,41.83
2023-10-23T12:30:09.200Z,41.65
2023-10-23T12:33:13.033Z,39.25
2023-10-23T12:35:23.508Z,38.65
2023-10-23T12:37:50.303Z,39.50
2023-10-23T12:40:16.801Z,43.92
2023-10-23T12:42:43.304Z,42.10
2023-10-23T12:45:10.270Z,39.83
2023-10-23T12:47:36.734Z,39.72
2023-10-23T12:50:04.696Z,42.70
2023-10-23T12:52:31.787Z,40.63
2023-10-23T12:54:58.325Z,40.03
2023-10-23T12:57:24.756Z,42.55
2023-10-23T12:59:51.240Z,40.22
2023-10-23T13:02:17.640Z,43.20
2023-10-23T13:07:11.218Z,44.55
2023-10-23T13:09:37.764Z,45.83
2023-10-23T13:12:04.590Z,42.83
2023-10-23T13:14:31.103Z,43.70
2023-10-23T13:16:57.596Z,47.22
2023-10-23T13:19:24.592Z,43.90
2023-10-23T13:21:51.010Z,48.67
2023-10-23T13:24:18.900Z,51.28
2023-10-23T13:26:45.281Z,50.60
2023-10-23T13:29:12.037Z,51.22
2023-10-23T13:31:38.630Z,52.15
2023-10-23T13:34:05.192Z,50.22
2023-10-23T13:36:31.568Z,48.00
2023-10-23T13:38:58.116Z,45.22
2023-10-23T13:41:24.503Z,44.38
2023-10-23T13:43:50.879Z,47.25
2023-10-23T13:46:19.198Z,42.30
2023-10-23T13:48:46.974Z,42.97
2023-10-23T13:51:14.246Z,40.92
2023-10-23T13:53:43.920Z,43.58
2023-10-23T13:56:10.299Z,45.40
2023-10-23T13:58:37.584Z,44.63
2023-10-23T14:01:04.962Z,48.53
2023-10-23T14:03:31.500Z,46.78
2023-10-23T14:05:57.974Z,45.45
2023-10-23T14:09:38.908Z,47.50
2023-10-23T14:11:57.043Z,43.95
2023-10-23T14:13:58.903Z,42.65
2023-10-23T14:16:25.974Z,45.70
2023-10-23T14:18:55.585Z,44.60
2023-10-23T14:21:22.058Z,42.92
2023-10-23T14:23:48.470Z,43.42
2023-10-23T14:26:15.403Z,43.15
2023-10-23T14:28:41.760Z,41.92
2023-10-23T14:31:08.183Z,43.17
2023-10-23T14:33:34.645Z,47.17
2023-10-23T14:36:01.104Z,42.47
2023-10-23T14:38:27.658Z,43.28
2023-10-23T14:41:02.527Z,43.20
2023-10-23T14:43:29.557Z,44.88
2023-10-23T14:45:56.036Z,43.88
2023-10-23T14:48:24.132Z,43.25
2023-10-23T14:50:53.751Z,47.40
2023-10-23T14:53:20.372Z,43.75
2023-10-23T14:55:47.126Z,47.65
2023-10-23T14:58:13.606Z,48.80
2023-10-23T15:00:43.843Z,46.80
2023-10-23T15:03:10.358Z,47.67
2023-10-23T15:05:36.843Z,50.03
2023-10-23T15:08:03.852Z,48.58
2023-10-23T15:10:30.287Z,48.70
2023-10-23T15:12:56.906Z,46.13
2023-10-23T15:15:23.567Z,45.75
2023-10-23T15:17:50.146Z,45.92
2023-10-23T15:20:16.580Z,42.83
2023-10-23T15:22:43.009Z,45.08
2023-10-23T15:25:10.015Z,44.15
2023-10-23T15:27:36.437Z,43.35
2023-10-23T15:30:04.391Z,47.85
2023-10-23T15:32:32.922Z,46.03
2023-10-23T15:34:59.943Z,48.75
2023-10-23T15:37:26.936Z,47.88
2023-10-23T15:39:53.458Z,48.33
2023-10-23T15:42:19.892Z,48.03
2023-10-23T15:44:47.009Z,51.88
2023-10-23T15:47:13.705Z,51.28
2023-10-23T15:49:40.648Z,51.53
2023-10-23T15:52:07.271Z,55.38
2023-10-23T15:54:33.911Z,53.28
2023-10-23T15:57:00.337Z,54.63
2023-10-23T15:59:26.750Z,57.88
2023-10-23T16:01:53.235Z,56.42
2023-10-23T16:04:19.829Z,53.78
2023-10-23T16:06:46.282Z,66.43
2023-10-23T16:09:22.114Z,87.13
2023-10-23T16:11:51.064Z,98.55
2023-10-23T16:14:17.634Z,138.77
2023-10-23T16:16:44.086Z,150.77
2023-10-23T16:19:10.589Z,168.25
2023-10-23T16:21:37.013Z,185.82
2023-10-23T16:24:04.565Z,209.60
2023-10-23T16:26:30.945Z,239.43
2023-10-23T16:28:57.387Z,256.92
2023-10-23T16:31:23.832Z,292.00
2023-10-23T16:33:50.360Z,307.92
2023-10-23T16:36:16.742Z,300.23
2023-10-23T16:38:43.121Z,322.85
2023-10-23T16:41:09.580Z,351.35
2023-10-23T16:43:40.928Z,385.50
2023-10-23T16:46:07.742Z,418.33
2023-10-23T16:48:34.212Z,455.45
2023-10-23T16:51:02.745Z,512.60
2023-10-23T16:53:29.108Z,505.67
2023-10-23T16:55:55.488Z,548.75
2023-10-23T16:58:25.085Z,549.42
2023-10-23T17:00:53.488Z,586.47
2023-10-23T17:03:20.977Z,558.28
2023-10-23T17:05:47.676Z,544.10
2023-10-23T17:08:14.045Z,589.22
2023-10-23T17:10:40.415Z,584.95
2023-10-23T17:13:06.909Z,628.42
2023-10-23T17:15:33.325Z,607.55
2023-10-23T17:18:00.580Z,615.95
2023-10-23T17:20:27.072Z,605.92
2023-10-23T17:22:53.446Z,617.85
2023-10-23T17:25:19.860Z,614.17
2023-10-23T17:27:46.338Z,612.65
2023-10-23T17:30:13.222Z,601.40
2023-10-23T17:32:40.175Z,611.33
2023-10-23T17:35:06.872Z,608.78
2023-10-23T17:37:33.299Z,589.58
2023-10-23T17:40:00.775Z,586.45
2023-10-23T17:42:27.255Z,628.92
2023-10-23T17:44:53.654Z,625.70
2023-10-23T17:47:20.125Z,629.45
2023-10-23T17:49:46.538Z,607.95
2023-10-23T17:52:12.959Z,606.42
2023-10-23T17:54:41.333Z,635.67
2023-10-23T17:57:07.973Z,629.00
2023-10-23T17:59:34.530Z,617.42
2023-10-23T18:02:01.736Z,602.33
2023-10-23T18:04:28.367Z,627.97
2023-10-23T18:06:54.838Z,632.30
2023-10-23T18:09:21.560Z,603.90
2023-10-23T18:11:48.044Z,611.10
2023-10-23T18:14:14.411Z,617.10
2023-10-23T18:16:41.087Z,616.25
2023-10-23T18:19:09.784Z,602.65
2023-10-23T18:21:36.240Z,607.47
2023-10-23T18:24:02.858Z,615.33
2023-10-23T18:26:29.247Z,607.38
2023-10-23T18:28:57.896Z,594.33
2023-10-23T18:31:26.606Z,578.30
2023-10-23T18:33:53.133Z,556.65
2023-10-23T18:36:19.651Z,536.40
2023-10-23T18:38:47.471Z,574.80
2023-10-23T18:41:18.107Z,572.92
2023-10-23T18:43:48.783Z,555.50
2023-10-23T18:46:15.816Z,548.75
2023-10-23T18:48:42.576Z,559.88
2023-10-23T18:51:12.771Z,581.70
2023-10-23T18:53:42.743Z,592.40
2023-10-23T18:56:09.644Z,578.67
2023-10-23T18:58:36.345Z,588.17
2023-10-23T19:01:03.408Z,607.03
2023-10-23T19:03:31.413Z,587.42
2023-10-23T19:05:58.055Z,569.95
2023-10-23T19:08:25.955Z,579.35
2023-10-23T19:10:52.396Z,552.95
2023-10-23T19:13:18.970Z,570.58
2023-10-23T19:15:45.416Z,594.47
2023-10-23T19:18:11.903Z,579.50
2023-10-23T19:20:39.428Z,593.22
2023-10-23T19:23:09.470Z,581.05
2023-10-23T19:25:36.041Z,568.47
2023-10-23T19:28:04.762Z,562.42
2023-10-23T19:30:33.197Z,544.65
2023-10-23T19:33:00.732Z,558.92
2023-10-23T19:35:27.831Z,552.00
2023-10-23T19:37:54.666Z,563.40
2023-10-23T19:40:21.668Z,564.45
2023-10-23T19:42:51.668Z,572.05
2023-10-23T19:45:18.644Z,567.58
2023-10-23T19:47:45.842Z,588.40
2023-10-23T19:50:15.996Z,569.42
2023-10-23T19:52:44.227Z,581.45
2023-10-23T19:55:43.128Z,592.17
2023-10-23T19:57:58.488Z,562.03
2023-10-23T20:00:25.017Z,580.78
2023-10-23T20:02:51.653Z,591.90
2023-10-23T20:05:18.321Z,563.63
2023-10-23T20:07:44.923Z,564.67
2023-10-23T20:10:14.569Z,565.67
2023-10-23T20:12:42.609Z,587.90
2023-10-23T20:15:10.727Z,591.75
2023-10-23T20:17:37.468Z,595.83
2023-10-23T20:20:04.993Z,586.17
2023-10-23T20:22:31.488Z,580.78
2023-10-23T20:24:57.926Z,588.70
2023-10-23T20:27:24.297Z,578.88
2023-10-23T20:29:50.659Z,586.75
2023-10-23T20:32:17.178Z,582.72
2023-10-23T20:34:43.636Z,547.10
2023-10-23T20:37:10.297Z,574.67
2023-10-23T20:39:36.746Z,594.45
2023-10-23T20:42:03.292Z,574.08
2023-10-23T20:44:35.050Z,606.78
2023-10-23T20:47:01.609Z,624.92
2023-10-23T20:49:28.130Z,619.33
2023-10-23T20:51:54.745Z,656.55
2023-10-23T20:54:21.391Z,663.10
2023-10-23T20:56:47.809Z,659.28
2023-10-23T20:59:14.216Z,694.60
2023-10-23T21:01:40.748Z,720.95
2023-10-23T21:04:07.219Z,667.63
2023-10-23T21:06:33.626Z,728.92
2023-10-23T21:09:00.019Z,713.67
2023-10-23T21:11:27.453Z,701.70
2023-10-23T21:13:54.309Z,701.90
2023-10-23T21:16:22.791Z,698.75
2023-10-23T21:18:49.285Z,695.03
2023-10-23T21:21:15.670Z,673.63
2023-10-23T21:23:42.082Z,678.28
2023-10-23T21:26:08.590Z,679.10
2023-10-23T21:28:35.009Z,683.47
2023-10-23T21:31:01.986Z,652.03
2023-10-23T21:33:29.327Z,656.95
2023-10-23T21:35:55.942Z,659.92
2023-10-23T21:38:22.753Z,654.80
2023-10-23T21:40:49.255Z,654.45
2023-10-23T21:43:16.153Z,658.45
2023-10-23T21:45:42.716Z,663.10
2023-10-23T21:48:09.674Z,659.10
2023-10-23T21:50:40.984Z,645.78
2023-10-23T21:53:07.822Z,671.78
2023-10-23T21:55:34.754Z,664.03
2023-10-23T21:58:02.739Z,657.88
2023-10-23T22:00:29.533Z,649.13
2023-10-23T22:02:57.302Z,636.22
2023-10-23T22:05:24.569Z,641.63
2023-10-23T22:07:52.227Z,613.75
2023-10-23T22:10:19.925Z,625.72
2023-10-23T22:12:46.983Z,622.67
2023-10-23T22:15:13.695Z,623.58
2023-10-23T22:17:40.326Z,597.38
2023-10-23T22:20:07.713Z,603.08
2023-10-23T22:22:34.200Z,604.92
2023-10-23T22:25:00.837Z,595.42
2023-10-23T22:27:27.323Z,585.00
2023-10-23T22:29:53.754Z,588.47
2023-10-23T22:32:20.274Z,585.13
2023-10-23T22:34:46.836Z,578.03
2023-10-23T22:38:00.588Z,577.38
2023-10-23T22:39:59.796Z,557.05
2023-10-23T22:42:26.627Z,551.25
2023-10-23T22:44:53.063Z,571.45
2023-10-23T22:47:19.723Z,595.90
2023-10-23T22:49:46.471Z,567.67
2023-10-23T22:52:13.275Z,577.58
2023-10-23T22:54:40.235Z,550.47
2023-10-23T22:57:08.031Z,566.40
2023-10-23T22:59:34.987Z,572.90
2023-10-23T23:02:01.933Z,544.00
2023-10-23T23:04:28.909Z,547.90
2023-10-23T23:06:59.604Z,542.03
2023-10-23T23:09:27.089Z,564.30
2023-10-23T23:11:53.837Z,549.45
2023-10-23T23:14:20.496Z,558.72
2023-10-23T23:16:49.722Z,560.22
2023-10-23T23:19:24.987Z,565.42
2023-10-23T23:21:54.901Z,528.00
2023-10-23T23:24:21.367Z,533.67
2023-10-23T23:26:48.204Z,532.67
2023-10-23T23:29:14.678Z,532.80
2023-10-23T23:31:41.180Z,529.80
2023-10-23T23:34:08.020Z,532.00
2023-10-23T23:36:34.507Z,514.53
2023-10-23T23:39:00.916Z,539.10
2023-10-23T23:41:27.640Z,533.28
2023-10-23T23:43:54.081Z,535.13
2023-10-23T23:46:20.588Z,526.22
2023-10-23T23:48:47.049Z,524.53
2023-10-23T23:51:13.489Z,494.13
2023-10-23T23:53:39.844Z,528.92
2023-10-23T23:56:06.336Z,551.88
2023-10-23T23:58:32.779Z,542.78
